sensor_id;sensor_type;location;lat;lon;timestamp;P1;durP1;ratioP1;P2;durP2;ratioP2
4686;SDS011;2357;47.316;-1.348;2023-12-14T00:00:25;3.40;;;1.20;;
4686;SDS011;2357;47.316;-1.348;2023-12-14T00:02:51;8.50;;;1.30;;
4686;SDS011;2357;47.316;-1.348;2023-12-14T00:05:16;4.87;;;0.90;;
4686;SDS011;2357;47.316;-1.348;2023-12-14T00:07:42;7.30;;;1.17;;
4686;SDS011;2357;47.316;-1.348;2023-12-14T00:10:07;2.60;;;1.07;;
4686;SDS011;2357;47.316;-1.348;2023-12-14T00:12:33;6.17;;;1.37;;
4686;SDS011;2357;47.316;-1.348;2023-12-14T00:14:59;5.87;;;1.47;;
4686;SDS011;2357;47.316;-1.348;2023-12-14T00:17:24;2.87;;;0.90;;
4686;SDS011;2357;47.316;-1.348;2023-12-14T00:19:50;4.10;;;1.30;;
4686;SDS011;2357;47.316;-1.348;2023-12-14T00:22:15;1.30;;;1.20;;
4686;SDS011;2357;47.316;-1.348;2023-12-14T00:24:41;1.63;;;1.13;;
4686;SDS011;2357;47.316;-1.348;2023-12-14T00:27:07;4.20;;;1.00;;
4686;SDS011;2357;47.316;-1.348;2023-12-14T00:29:33;5.00;;;1.60;;
4686;SDS011;2357;47.316;-1.348;2023-12-14T00:31:58;1.37;;;0.97;;
4686;SDS011;2357;47.316;-1.348;2023-12-14T00:34:24;4.40;;;0.87;;
4686;SDS011;2357;47.316;-1.348;2023-12-14T00:36:50;9.63;;;1.30;;
4686;SDS011;2357;47.316;-1.348;2023-12-14T00:39:15;1.83;;;1.30;;
4686;SDS011;2357;47.316;-1.348;2023-12-14T00:41:41;5.50;;;1.13;;
4686;SDS011;2357;47.316;-1.348;2023-12-14T00:44:06;2.50;;;1.03;;
4686;SDS011;2357;47.316;-1.348;2023-12-14T00:46:32;9.83;;;1.40;;
4686;SDS011;2357;47.316;-1.348;2023-12-14T00:48:58;6.20;;;1.63;;
4686;SDS011;2357;47.316;-1.348;2023-12-14T00:51:23;4.47;;;1.20;;
4686;SDS011;2357;47.316;-1.348;2023-12-14T00:53:49;2.07;;;1.40;;
4686;SDS011;2357;47.316;-1.348;2023-12-14T00:56:14;4.43;;;1.30;;
4686;SDS011;2357;47.316;-1.348;2023-12-14T00:58:40;5.10;;;0.80;;
4686;SDS011;2357;47.316;-1.348;2023-12-14T01:01:06;3.90;;;0.90;;
4686;SDS011;2357;47.316;-1.348;2023-12-14T01:03:31;4.00;;;1.40;;
4686;SDS011;2357;47.316;-1.348;2023-12-14T01:05:57;2.70;;;1.50;;
4686;SDS011;2357;47.316;-1.348;2023-12-14T01:08:23;1.67;;;1.20;;
4686;SDS011;2357;47.316;-1.348;2023-12-14T01:10:48;1.37;;;1.10;;
4686;SDS011;2357;47.316;-1.348;2023-12-14T01:13:14;9.43;;;1.40;;
4686;SDS011;2357;47.316;-1.348;2023-12-14T01:15:40;11.90;;;1.70;;
4686;SDS011;2357;47.316;-1.348;2023-12-14T01:18:06;4.17;;;1.70;;
4686;SDS011;2357;47.316;-1.348;2023-12-14T01:20:31;2.70;;;1.13;;
4686;SDS011;2357;47.316;-1.348;2023-12-14T01:22:57;3.23;;;1.20;;
4686;SDS011;2357;47.316;-1.348;2023-12-14T01:25:22;5.33;;;1.43;;
4686;SDS011;2357;47.316;-1.348;2023-12-14T01:27:48;11.80;;;1.30;;
4686;SDS011;2357;47.316;-1.348;2023-12-14T01:30:14;5.80;;;1.00;;
4686;SDS011;2357;47.316;-1.348;2023-12-14T01:32:39;10.90;;;1.30;;
4686;SDS011;2357;47.316;-1.348;2023-12-14T01:35:05;7.07;;;1.20;;
4686;SDS011;2357;47.316;-1.348;2023-12-14T01:37:31;3.33;;;1.10;;
4686;SDS011;2357;47.316;-1.348;2023-12-14T01:39:56;5.50;;;1.17;;
4686;SDS011;2357;47.316;-1.348;2023-12-14T01:42:22;19.40;;;2.10;;
4686;SDS011;2357;47.316;-1.348;2023-12-14T01:44:47;3.73;;;1.33;;
4686;SDS011;2357;47.316;-1.348;2023-12-14T01:47:13;9.50;;;1.57;;
4686;SDS011;2357;47.316;-1.348;2023-12-14T01:49:39;5.23;;;1.50;;
4686;SDS011;2357;47.316;-1.348;2023-12-14T01:52:06;6.00;;;1.30;;
4686;SDS011;2357;47.316;-1.348;2023-12-14T01:54:32;3.20;;;1.47;;
4686;SDS011;2357;47.316;-1.348;2023-12-14T01:56:58;7.90;;;1.53;;
4686;SDS011;2357;47.316;-1.348;2023-12-14T01:59:24;1.10;;;1.00;;
4686;SDS011;2357;47.316;-1.348;2023-12-14T02:01:52;4.87;;;1.50;;
4686;SDS011;2357;47.316;-1.348;2023-12-14T02:04:22;8.20;;;1.67;;
4686;SDS011;2357;47.316;-1.348;2023-12-14T02:06:48;5.90;;;1.40;;
4686;SDS011;2357;47.316;-1.348;2023-12-14T02:09:14;4.87;;;1.37;;
4686;SDS011;2357;47.316;-1.348;2023-12-14T02:11:40;8.47;;;1.10;;
4686;SDS011;2357;47.316;-1.348;2023-12-14T02:14:06;2.03;;;0.97;;
4686;SDS011;2357;47.316;-1.348;2023-12-14T02:16:34;2.50;;;1.47;;
4686;SDS011;2357;47.316;-1.348;2023-12-14T02:19:00;10.43;;;1.73;;
4686;SDS011;2357;47.316;-1.348;2023-12-14T02:21:25;4.00;;;1.07;;
4686;SDS011;2357;47.316;-1.348;2023-12-14T02:23:51;8.20;;;1.13;;
4686;SDS011;2357;47.316;-1.348;2023-12-14T02:26:17;9.00;;;1.40;;
4686;SDS011;2357;47.316;-1.348;2023-12-14T02:28:42;3.67;;;1.30;;
4686;SDS011;2357;47.316;-1.348;2023-12-14T02:31:08;5.70;;;1.10;;
4686;SDS011;2357;47.316;-1.348;2023-12-14T02:33:34;8.00;;;1.50;;
4686;SDS011;2357;47.316;-1.348;2023-12-14T02:36:00;0.97;;;0.97;;
4686;SDS011;2357;47.316;-1.348;2023-12-14T02:38:25;2.50;;;1.10;;
4686;SDS011;2357;47.316;-1.348;2023-12-14T02:40:51;7.80;;;1.30;;
4686;SDS011;2357;47.316;-1.348;2023-12-14T02:43:18;3.57;;;0.93;;
4686;SDS011;2357;47.316;-1.348;2023-12-14T02:45:44;2.90;;;1.20;;
4686;SDS011;2357;47.316;-1.348;2023-12-14T02:48:10;3.63;;;1.20;;
4686;SDS011;2357;47.316;-1.348;2023-12-14T02:50:35;7.40;;;1.10;;
4686;SDS011;2357;47.316;-1.348;2023-12-14T02:53:01;3.23;;;1.10;;
4686;SDS011;2357;47.316;-1.348;2023-12-14T02:55:27;3.33;;;1.03;;
4686;SDS011;2357;47.316;-1.348;2023-12-14T02:57:52;4.20;;;0.90;;
4686;SDS011;2357;47.316;-1.348;2023-12-14T03:00:18;1.77;;;1.00;;
4686;SDS011;2357;47.316;-1.348;2023-12-14T03:02:44;6.27;;;1.40;;
4686;SDS011;2357;47.316;-1.348;2023-12-14T03:05:10;3.03;;;1.13;;
4686;SDS011;2357;47.316;-1.348;2023-12-14T03:07:35;3.83;;;1.33;;
4686;SDS011;2357;47.316;-1.348;2023-12-14T03:10:02;2.83;;;1.10;;
4686;SDS011;2357;47.316;-1.348;2023-12-14T03:12:28;1.67;;;0.90;;
4686;SDS011;2357;47.316;-1.348;2023-12-14T03:14:54;5.00;;;1.10;;
4686;SDS011;2357;47.316;-1.348;2023-12-14T03:17:19;2.30;;;1.20;;
4686;SDS011;2357;47.316;-1.348;2023-12-14T03:19:45;6.30;;;1.07;;
4686;SDS011;2357;47.316;-1.348;2023-12-14T03:22:10;4.57;;;1.47;;
4686;SDS011;2357;47.316;-1.348;2023-12-14T03:24:36;2.07;;;1.20;;
4686;SDS011;2357;47.316;-1.348;2023-12-14T03:27:02;2.90;;;1.30;;
4686;SDS011;2357;47.316;-1.348;2023-12-14T03:29:28;9.50;;;1.30;;
4686;SDS011;2357;47.316;-1.348;2023-12-14T03:31:57;2.10;;;1.23;;
4686;SDS011;2357;47.316;-1.348;2023-12-14T03:34:23;2.53;;;1.10;;
4686;SDS011;2357;47.316;-1.348;2023-12-14T03:36:49;5.33;;;1.60;;
4686;SDS011;2357;47.316;-1.348;2023-12-14T03:39:15;3.67;;;1.00;;
4686;SDS011;2357;47.316;-1.348;2023-12-14T03:41:44;4.50;;;1.17;;
4686;SDS011;2357;47.316;-1.348;2023-12-14T03:44:10;4.73;;;1.00;;
4686;SDS011;2357;47.316;-1.348;2023-12-14T03:46:35;4.93;;;1.03;;
4686;SDS011;2357;47.316;-1.348;2023-12-14T03:49:01;1.77;;;0.90;;
4686;SDS011;2357;47.316;-1.348;2023-12-14T03:51:28;7.90;;;1.30;;
4686;SDS011;2357;47.316;-1.348;2023-12-14T03:53:54;2.77;;;1.10;;
4686;SDS011;2357;47.316;-1.348;2023-12-14T03:56:19;7.57;;;1.37;;
4686;SDS011;2357;47.316;-1.348;2023-12-14T03:58:45;4.10;;;1.23;;
4686;SDS011;2357;47.316;-1.348;2023-12-14T04:01:17;2.20;;;1.00;;
4686;SDS011;2357;47.316;-1.348;2023-12-14T04:03:44;1.23;;;0.90;;
4686;SDS011;2357;47.316;-1.348;2023-12-14T04:06:11;2.73;;;0.90;;
4686;SDS011;2357;47.316;-1.348;2023-12-14T04:08:37;2.13;;;0.90;;
4686;SDS011;2357;47.316;-1.348;2023-12-14T04:11:04;6.33;;;1.13;;
4686;SDS011;2357;47.316;-1.348;2023-12-14T04:13:29;4.50;;;1.03;;
4686;SDS011;2357;47.316;-1.348;2023-12-14T04:15:55;2.60;;;0.90;;
4686;SDS011;2357;47.316;-1.348;2023-12-14T04:18:20;3.50;;;1.10;;
4686;SDS011;2357;47.316;-1.348;2023-12-14T04:20:46;9.30;;;1.30;;
4686;SDS011;2357;47.316;-1.348;2023-12-14T04:23:12;4.43;;;1.50;;
4686;SDS011;2357;47.316;-1.348;2023-12-14T04:25:37;3.17;;;1.50;;
4686;SDS011;2357;47.316;-1.348;2023-12-14T04:28:03;4.20;;;1.10;;
4686;SDS011;2357;47.316;-1.348;2023-12-14T04:30:29;3.53;;;1.23;;
4686;SDS011;2357;47.316;-1.348;2023-12-14T04:32:54;4.73;;;1.30;;
4686;SDS011;2357;47.316;-1.348;2023-12-14T04:35:20;3.60;;;0.90;;
4686;SDS011;2357;47.316;-1.348;2023-12-14T04:37:47;6.70;;;1.33;;
4686;SDS011;2357;47.316;-1.348;2023-12-14T04:40:13;9.07;;;1.00;;
4686;SDS011;2357;47.316;-1.348;2023-12-14T04:42:39;3.93;;;1.30;;
4686;SDS011;2357;47.316;-1.348;2023-12-14T04:45:04;3.23;;;1.47;;
4686;SDS011;2357;47.316;-1.348;2023-12-14T04:47:31;1.47;;;1.10;;
4686;SDS011;2357;47.316;-1.348;2023-12-14T04:49:56;5.90;;;1.17;;
4686;SDS011;2357;47.316;-1.348;2023-12-14T04:52:22;6.40;;;0.90;;
4686;SDS011;2357;47.316;-1.348;2023-12-14T04:54:47;4.20;;;1.03;;
4686;SDS011;2357;47.316;-1.348;2023-12-14T04:57:13;3.73;;;1.20;;
4686;SDS011;2357;47.316;-1.348;2023-12-14T04:59:40;5.00;;;0.93;;
4686;SDS011;2357;47.316;-1.348;2023-12-14T05:02:07;5.17;;;0.90;;
4686;SDS011;2357;47.316;-1.348;2023-12-14T05:04:32;5.97;;;1.03;;
4686;SDS011;2357;47.316;-1.348;2023-12-14T05:06:58;5.27;;;1.77;;
4686;SDS011;2357;47.316;-1.348;2023-12-14T05:09:24;7.93;;;1.60;;
4686;SDS011;2357;47.316;-1.348;2023-12-14T05:11:49;10.50;;;1.13;;
4686;SDS011;2357;47.316;-1.348;2023-12-14T05:14:15;1.93;;;0.93;;
4686;SDS011;2357;47.316;-1.348;2023-12-14T05:16:40;2.93;;;1.60;;
4686;SDS011;2357;47.316;-1.348;2023-12-14T05:19:06;9.37;;;1.20;;
4686;SDS011;2357;47.316;-1.348;2023-12-14T05:21:32;2.87;;;1.30;;
4686;SDS011;2357;47.316;-1.348;2023-12-14T05:23:57;1.90;;;1.23;;
4686;SDS011;2357;47.316;-1.348;2023-12-14T05:26:24;9.10;;;1.23;;
4686;SDS011;2357;47.316;-1.348;2023-12-14T05:28:49;2.03;;;1.87;;
4686;SDS011;2357;47.316;-1.348;2023-12-14T05:31:15;4.10;;;2.73;;
4686;SDS011;2357;47.316;-1.348;2023-12-14T05:33:40;6.17;;;2.37;;
4686;SDS011;2357;47.316;-1.348;2023-12-14T05:36:06;7.17;;;2.53;;
4686;SDS011;2357;47.316;-1.348;2023-12-14T05:38:35;5.73;;;1.97;;
4686;SDS011;2357;47.316;-1.348;2023-12-14T05:41:03;5.90;;;1.97;;
4686;SDS011;2357;47.316;-1.348;2023-12-14T05:43:29;16.60;;;2.63;;
4686;SDS011;2357;47.316;-1.348;2023-12-14T05:45:54;6.57;;;1.60;;
4686;SDS011;2357;47.316;-1.348;2023-12-14T05:48:20;3.53;;;1.87;;
4686;SDS011;2357;47.316;-1.348;2023-12-14T05:50:45;5.10;;;1.73;;
4686;SDS011;2357;47.316;-1.348;2023-12-14T05:53:11;5.40;;;1.80;;
4686;SDS011;2357;47.316;-1.348;2023-12-14T05:55:37;5.50;;;2.37;;
4686;SDS011;2357;47.316;-1.348;2023-12-14T05:58:05;2.07;;;1.50;;
4686;SDS011;2357;47.316;-1.348;2023-12-14T06:00:30;10.70;;;2.90;;
4686;SDS011;2357;47.316;-1.348;2023-12-14T06:02:56;3.37;;;1.50;;
4686;SDS011;2357;47.316;-1.348;2023-12-14T06:05:22;5.33;;;2.00;;
4686;SDS011;2357;47.316;-1.348;2023-12-14T06:07:48;4.63;;;1.67;;
4686;SDS011;2357;47.316;-1.348;2023-12-14T06:10:13;3.90;;;1.77;;
4686;SDS011;2357;47.316;-1.348;2023-12-14T06:12:39;3.50;;;1.40;;
4686;SDS011;2357;47.316;-1.348;2023-12-14T06:15:05;6.80;;;1.60;;
4686;SDS011;2357;47.316;-1.348;2023-12-14T06:17:31;1.57;;;1.30;;
4686;SDS011;2357;47.316;-1.348;2023-12-14T06:19:58;9.43;;;1.17;;
4686;SDS011;2357;47.316;-1.348;2023-12-14T06:22:24;3.23;;;1.30;;
4686;SDS011;2357;47.316;-1.348;2023-12-14T06:24:51;5.07;;;1.40;;
4686;SDS011;2357;47.316;-1.348;2023-12-14T06:27:16;3.17;;;1.20;;
4686;SDS011;2357;47.316;-1.348;2023-12-14T06:29:42;3.57;;;1.53;;
4686;SDS011;2357;47.316;-1.348;2023-12-14T06:32:08;8.53;;;2.07;;
4686;SDS011;2357;47.316;-1.348;2023-12-14T06:34:33;3.63;;;1.27;;
4686;SDS011;2357;47.316;-1.348;2023-12-14T06:36:59;5.80;;;1.30;;
4686;SDS011;2357;47.316;-1.348;2023-12-14T06:39:25;12.47;;;1.43;;
4686;SDS011;2357;47.316;-1.348;2023-12-14T06:41:53;2.87;;;0.97;;
4686;SDS011;2357;47.316;-1.348;2023-12-14T06:44:19;17.30;;;1.27;;
4686;SDS011;2357;47.316;-1.348;2023-12-14T06:46:45;3.13;;;1.50;;
4686;SDS011;2357;47.316;-1.348;2023-12-14T06:49:10;5.60;;;1.70;;
4686;SDS011;2357;47.316;-1.348;2023-12-14T06:51:36;1.23;;;1.07;;
4686;SDS011;2357;47.316;-1.348;2023-12-14T06:54:01;4.40;;;1.40;;
4686;SDS011;2357;47.316;-1.348;2023-12-14T06:56:27;6.83;;;1.33;;
4686;SDS011;2357;47.316;-1.348;2023-12-14T06:58:53;7.83;;;1.33;;
4686;SDS011;2357;47.316;-1.348;2023-12-14T07:01:18;14.70;;;1.60;;
4686;SDS011;2357;47.316;-1.348;2023-12-14T07:03:44;3.73;;;1.20;;
4686;SDS011;2357;47.316;-1.348;2023-12-14T07:06:13;2.73;;;1.23;;
4686;SDS011;2357;47.316;-1.348;2023-12-14T07:08:40;5.90;;;2.00;;
4686;SDS011;2357;47.316;-1.348;2023-12-14T07:11:07;1.20;;;1.10;;
4686;SDS011;2357;47.316;-1.348;2023-12-14T07:13:33;11.37;;;1.50;;
4686;SDS011;2357;47.316;-1.348;2023-12-14T07:16:01;4.90;;;1.50;;
4686;SDS011;2357;47.316;-1.348;2023-12-14T07:18:28;3.97;;;1.57;;
4686;SDS011;2357;47.316;-1.348;2023-12-14T07:20:54;3.60;;;1.20;;
4686;SDS011;2357;47.316;-1.348;2023-12-14T07:23:19;3.40;;;0.90;;
4686;SDS011;2357;47.316;-1.348;2023-12-14T07:25:45;5.73;;;1.40;;
4686;SDS011;2357;47.316;-1.348;2023-12-14T07:28:11;10.07;;;1.43;;
4686;SDS011;2357;47.316;-1.348;2023-12-14T07:30:36;5.43;;;1.03;;
4686;SDS011;2357;47.316;-1.348;2023-12-14T07:33:02;2.70;;;1.37;;
4686;SDS011;2357;47.316;-1.348;2023-12-14T07:35:27;4.27;;;1.20;;
4686;SDS011;2357;47.316;-1.348;2023-12-14T07:37:54;3.27;;;1.23;;
4686;SDS011;2357;47.316;-1.348;2023-12-14T07:40:19;4.97;;;1.40;;
4686;SDS011;2357;47.316;-1.348;2023-12-14T07:42:45;3.07;;;1.20;;
4686;SDS011;2357;47.316;-1.348;2023-12-14T07:45:10;4.53;;;1.50;;
4686;SDS011;2357;47.316;-1.348;2023-12-14T07:47:36;4.53;;;1.53;;
4686;SDS011;2357;47.316;-1.348;2023-12-14T07:50:02;2.90;;;1.20;;
4686;SDS011;2357;47.316;-1.348;2023-12-14T07:52:28;6.43;;;1.57;;
4686;SDS011;2357;47.316;-1.348;2023-12-14T07:54:54;3.33;;;1.10;;
4686;SDS011;2357;47.316;-1.348;2023-12-14T07:57:19;2.67;;;1.20;;
4686;SDS011;2357;47.316;-1.348;2023-12-14T07:59:45;7.00;;;1.50;;
4686;SDS011;2357;47.316;-1.348;2023-12-14T08:02:11;1.60;;;1.30;;
4686;SDS011;2357;47.316;-1.348;2023-12-14T08:04:37;9.43;;;1.53;;
4686;SDS011;2357;47.316;-1.348;2023-12-14T08:07:02;1.83;;;1.30;;
4686;SDS011;2357;47.316;-1.348;2023-12-14T08:09:28;3.30;;;1.30;;
4686;SDS011;2357;47.316;-1.348;2023-12-14T08:11:53;8.03;;;1.13;;
4686;SDS011;2357;47.316;-1.348;2023-12-14T08:14:19;2.40;;;1.50;;
4686;SDS011;2357;47.316;-1.348;2023-12-14T08:16:45;3.73;;;1.13;;
4686;SDS011;2357;47.316;-1.348;2023-12-14T08:19:10;5.27;;;1.27;;
4686;SDS011;2357;47.316;-1.348;2023-12-14T08:21:36;2.93;;;1.47;;
4686;SDS011;2357;47.316;-1.348;2023-12-14T08:24:01;2.03;;;1.23;;
4686;SDS011;2357;47.316;-1.348;2023-12-14T08:26:27;2.40;;;1.00;;
4686;SDS011;2357;47.316;-1.348;2023-12-14T08:28:53;5.13;;;1.23;;
4686;SDS011;2357;47.316;-1.348;2023-12-14T08:31:18;3.17;;;1.40;;
4686;SDS011;2357;47.316;-1.348;2023-12-14T08:33:44;2.50;;;1.47;;
4686;SDS011;2357;47.316;-1.348;2023-12-14T08:36:10;6.90;;;1.77;;
4686;SDS011;2357;47.316;-1.348;2023-12-14T08:38:35;13.03;;;2.00;;
4686;SDS011;2357;47.316;-1.348;2023-12-14T08:41:01;3.63;;;0.90;;
4686;SDS011;2357;47.316;-1.348;2023-12-14T08:43:27;2.80;;;1.20;;
4686;SDS011;2357;47.316;-1.348;2023-12-14T08:45:52;1.77;;;1.20;;
4686;SDS011;2357;47.316;-1.348;2023-12-14T08:48:18;3.30;;;1.57;;
4686;SDS011;2357;47.316;-1.348;2023-12-14T08:50:44;6.57;;;1.17;;
4686;SDS011;2357;47.316;-1.348;2023-12-14T08:53:10;2.27;;;1.30;;
4686;SDS011;2357;47.316;-1.348;2023-12-14T08:55:36;8.90;;;1.40;;
4686;SDS011;2357;47.316;-1.348;2023-12-14T08:58:02;2.83;;;1.00;;
4686;SDS011;2357;47.316;-1.348;2023-12-14T09:00:27;5.07;;;1.40;;
4686;SDS011;2357;47.316;-1.348;2023-12-14T09:02:53;3.67;;;1.37;;
4686;SDS011;2357;47.316;-1.348;2023-12-14T09:05:19;4.00;;;1.30;;
4686;SDS011;2357;47.316;-1.348;2023-12-14T09:07:46;1.83;;;1.30;;
4686;SDS011;2357;47.316;-1.348;2023-12-14T09:10:11;4.03;;;1.23;;
4686;SDS011;2357;47.316;-1.348;2023-12-14T09:12:37;8.87;;;2.03;;
4686;SDS011;2357;47.316;-1.348;2023-12-14T09:15:03;6.13;;;1.33;;
4686;SDS011;2357;47.316;-1.348;2023-12-14T09:17:29;3.00;;;1.17;;
4686;SDS011;2357;47.316;-1.348;2023-12-14T09:20:01;5.30;;;1.37;;
4686;SDS011;2357;47.316;-1.348;2023-12-14T09:22:29;2.40;;;1.57;;
4686;SDS011;2357;47.316;-1.348;2023-12-14T09:24:55;9.37;;;1.60;;
4686;SDS011;2357;47.316;-1.348;2023-12-14T09:27:21;3.40;;;1.43;;
4686;SDS011;2357;47.316;-1.348;2023-12-14T09:29:46;3.63;;;1.57;;
4686;SDS011;2357;47.316;-1.348;2023-12-14T09:32:12;1.63;;;1.40;;
4686;SDS011;2357;47.316;-1.348;2023-12-14T09:34:38;2.27;;;1.50;;
4686;SDS011;2357;47.316;-1.348;2023-12-14T09:37:03;3.20;;;1.50;;
4686;SDS011;2357;47.316;-1.348;2023-12-14T09:39:29;2.97;;;1.23;;
4686;SDS011;2357;47.316;-1.348;2023-12-14T09:42:04;12.60;;;0.90;;
4686;SDS011;2357;47.316;-1.348;2023-12-14T09:44:31;6.33;;;1.20;;
4686;SDS011;2357;47.316;-1.348;2023-12-14T09:47:01;5.20;;;1.73;;
4686;SDS011;2357;47.316;-1.348;2023-12-14T09:49:30;2.20;;;1.23;;
4686;SDS011;2357;47.316;-1.348;2023-12-14T09:51:56;6.70;;;1.50;;
4686;SDS011;2357;47.316;-1.348;2023-12-14T09:54:22;2.93;;;1.20;;
4686;SDS011;2357;47.316;-1.348;2023-12-14T09:56:48;4.33;;;1.60;;
4686;SDS011;2357;47.316;-1.348;2023-12-14T09:59:14;7.60;;;1.67;;
4686;SDS011;2357;47.316;-1.348;2023-12-14T10:01:40;6.67;;;1.63;;
4686;SDS011;2357;47.316;-1.348;2023-12-14T10:04:09;5.13;;;1.70;;
4686;SDS011;2357;47.316;-1.348;2023-12-14T10:06:41;8.30;;;1.80;;
4686;SDS011;2357;47.316;-1.348;2023-12-14T10:09:08;5.27;;;2.13;;
4686;SDS011;2357;47.316;-1.348;2023-12-14T10:11:34;4.93;;;1.83;;
4686;SDS011;2357;47.316;-1.348;2023-12-14T10:14:03;4.93;;;1.80;;
4686;SDS011;2357;47.316;-1.348;2023-12-14T10:16:42;4.13;;;1.63;;
4686;SDS011;2357;47.316;-1.348;2023-12-14T10:19:07;2.40;;;1.60;;
4686;SDS011;2357;47.316;-1.348;2023-12-14T10:21:33;6.87;;;1.50;;
4686;SDS011;2357;47.316;-1.348;2023-12-14T10:24:01;3.50;;;1.70;;
4686;SDS011;2357;47.316;-1.348;2023-12-14T10:26:27;4.57;;;1.90;;
4686;SDS011;2357;47.316;-1.348;2023-12-14T10:28:52;4.37;;;1.80;;
4686;SDS011;2357;47.316;-1.348;2023-12-14T10:31:18;3.60;;;1.87;;
4686;SDS011;2357;47.316;-1.348;2023-12-14T10:33:47;5.57;;;1.83;;
4686;SDS011;2357;47.316;-1.348;2023-12-14T10:36:13;5.30;;;1.77;;
4686;SDS011;2357;47.316;-1.348;2023-12-14T10:38:43;4.63;;;2.53;;
4686;SDS011;2357;47.316;-1.348;2023-12-14T10:41:11;5.17;;;2.37;;
4686;SDS011;2357;47.316;-1.348;2023-12-14T10:43:38;1.60;;;1.50;;
4686;SDS011;2357;47.316;-1.348;2023-12-14T10:46:06;8.77;;;1.90;;
4686;SDS011;2357;47.316;-1.348;2023-12-14T10:48:34;1.87;;;1.77;;
4686;SDS011;2357;47.316;-1.348;2023-12-14T10:51:02;6.60;;;2.30;;
4686;SDS011;2357;47.316;-1.348;2023-12-14T10:53:30;4.90;;;2.23;;
4686;SDS011;2357;47.316;-1.348;2023-12-14T10:55:57;7.63;;;1.97;;
4686;SDS011;2357;47.316;-1.348;2023-12-14T10:58:27;5.27;;;2.10;;
4686;SDS011;2357;47.316;-1.348;2023-12-14T11:01:14;9.17;;;2.07;;
4686;SDS011;2357;47.316;-1.348;2023-12-14T11:03:49;3.13;;;1.90;;
4686;SDS011;2357;47.316;-1.348;2023-12-14T11:06:21;1.90;;;1.80;;
4686;SDS011;2357;47.316;-1.348;2023-12-14T11:08:52;4.10;;;2.13;;
4686;SDS011;2357;47.316;-1.348;2023-12-14T11:11:20;5.50;;;2.23;;
4686;SDS011;2357;47.316;-1.348;2023-12-14T11:13:47;5.83;;;2.40;;
4686;SDS011;2357;47.316;-1.348;2023-12-14T11:16:19;5.90;;;3.03;;
4686;SDS011;2357;47.316;-1.348;2023-12-14T11:18:46;2.83;;;2.27;;
4686;SDS011;2357;47.316;-1.348;2023-12-14T11:21:11;3.60;;;2.00;;
4686;SDS011;2357;47.316;-1.348;2023-12-14T11:23:44;5.23;;;2.17;;
4686;SDS011;2357;47.316;-1.348;2023-12-14T11:26:10;3.90;;;2.03;;
4686;SDS011;2357;47.316;-1.348;2023-12-14T11:28:37;5.20;;;2.03;;
4686;SDS011;2357;47.316;-1.348;2023-12-14T11:31:09;4.63;;;2.20;;
4686;SDS011;2357;47.316;-1.348;2023-12-14T11:33:35;4.60;;;2.30;;
4686;SDS011;2357;47.316;-1.348;2023-12-14T11:36:04;5.53;;;2.40;;
4686;SDS011;2357;47.316;-1.348;2023-12-14T11:38:31;11.57;;;2.87;;
4686;SDS011;2357;47.316;-1.348;2023-12-14T11:40:58;2.60;;;2.30;;
4686;SDS011;2357;47.316;-1.348;2023-12-14T11:43:24;5.00;;;2.80;;
4686;SDS011;2357;47.316;-1.348;2023-12-14T11:45:51;8.03;;;2.70;;
4686;SDS011;2357;47.316;-1.348;2023-12-14T11:48:19;3.90;;;2.27;;
4686;SDS011;2357;47.316;-1.348;2023-12-14T11:50:45;6.07;;;2.60;;
4686;SDS011;2357;47.316;-1.348;2023-12-14T11:53:12;3.73;;;2.37;;
4686;SDS011;2357;47.316;-1.348;2023-12-14T11:55:39;4.43;;;2.70;;
4686;SDS011;2357;47.316;-1.348;2023-12-14T11:58:07;10.33;;;2.70;;
4686;SDS011;2357;47.316;-1.348;2023-12-14T12:00:33;8.53;;;3.03;;
4686;SDS011;2357;47.316;-1.348;2023-12-14T12:03:09;8.30;;;2.90;;
4686;SDS011;2357;47.316;-1.348;2023-12-14T12:05:46;4.13;;;2.57;;
4686;SDS011;2357;47.316;-1.348;2023-12-14T12:08:13;9.20;;;3.03;;
4686;SDS011;2357;47.316;-1.348;2023-12-14T12:10:40;5.77;;;2.77;;
4686;SDS011;2357;47.316;-1.348;2023-12-14T12:13:14;7.20;;;3.27;;
4686;SDS011;2357;47.316;-1.348;2023-12-14T12:15:40;9.20;;;4.77;;
4686;SDS011;2357;47.316;-1.348;2023-12-14T12:18:07;12.43;;;3.77;;
4686;SDS011;2357;47.316;-1.348;2023-12-14T12:20:34;9.37;;;3.40;;
4686;SDS011;2357;47.316;-1.348;2023-12-14T12:23:00;10.20;;;3.27;;
4686;SDS011;2357;47.316;-1.348;2023-12-14T12:25:26;7.63;;;3.50;;
4686;SDS011;2357;47.316;-1.348;2023-12-14T12:27:55;4.93;;;2.80;;
4686;SDS011;2357;47.316;-1.348;2023-12-14T12:30:21;9.87;;;3.50;;
4686;SDS011;2357;47.316;-1.348;2023-12-14T12:32:48;5.73;;;3.10;;
4686;SDS011;2357;47.316;-1.348;2023-12-14T12:35:15;4.70;;;2.93;;
4686;SDS011;2357;47.316;-1.348;2023-12-14T12:37:41;7.57;;;3.23;;
4686;SDS011;2357;47.316;-1.348;2023-12-14T12:40:07;8.87;;;2.90;;
4686;SDS011;2357;47.316;-1.348;2023-12-14T12:42:33;4.73;;;3.00;;
4686;SDS011;2357;47.316;-1.348;2023-12-14T12:44:59;8.47;;;3.33;;
4686;SDS011;2357;47.316;-1.348;2023-12-14T12:47:25;4.73;;;3.27;;
4686;SDS011;2357;47.316;-1.348;2023-12-14T12:49:51;15.50;;;3.40;;
4686;SDS011;2357;47.316;-1.348;2023-12-14T12:52:17;7.10;;;3.10;;
4686;SDS011;2357;47.316;-1.348;2023-12-14T12:54:43;5.33;;;2.33;;
4686;SDS011;2357;47.316;-1.348;2023-12-14T12:57:08;5.63;;;2.87;;
4686;SDS011;2357;47.316;-1.348;2023-12-14T12:59:34;5.93;;;3.07;;
4686;SDS011;2357;47.316;-1.348;2023-12-14T13:02:00;7.63;;;2.40;;
4686;SDS011;2357;47.316;-1.348;2023-12-14T13:04:27;7.70;;;3.23;;
4686;SDS011;2357;47.316;-1.348;2023-12-14T13:06:55;9.00;;;3.63;;
4686;SDS011;2357;47.316;-1.348;2023-12-14T13:09:21;5.47;;;2.70;;
4686;SDS011;2357;47.316;-1.348;2023-12-14T13:11:47;12.63;;;3.17;;
4686;SDS011;2357;47.316;-1.348;2023-12-14T13:14:13;17.70;;;3.93;;
4686;SDS011;2357;47.316;-1.348;2023-12-14T13:16:40;7.27;;;2.90;;
4686;SDS011;2357;47.316;-1.348;2023-12-14T13:19:06;9.30;;;2.43;;
4686;SDS011;2357;47.316;-1.348;2023-12-14T13:21:32;4.40;;;3.03;;
4686;SDS011;2357;47.316;-1.348;2023-12-14T13:24:01;12.80;;;3.90;;
4686;SDS011;2357;47.316;-1.348;2023-12-14T13:26:27;15.47;;;3.80;;
4686;SDS011;2357;47.316;-1.348;2023-12-14T13:28:53;9.77;;;3.83;;
4686;SDS011;2357;47.316;-1.348;2023-12-14T13:31:19;9.23;;;2.83;;
4686;SDS011;2357;47.316;-1.348;2023-12-14T13:33:45;8.10;;;2.60;;
4686;SDS011;2357;47.316;-1.348;2023-12-14T13:36:12;6.97;;;3.00;;
4686;SDS011;2357;47.316;-1.348;2023-12-14T13:38:38;4.07;;;2.57;;
4686;SDS011;2357;47.316;-1.348;2023-12-14T13:41:03;15.17;;;2.90;;
4686;SDS011;2357;47.316;-1.348;2023-12-14T13:43:29;7.80;;;2.70;;
4686;SDS011;2357;47.316;-1.348;2023-12-14T13:45:55;8.53;;;3.47;;
4686;SDS011;2357;47.316;-1.348;2023-12-14T13:48:24;9.03;;;2.30;;
4686;SDS011;2357;47.316;-1.348;2023-12-14T13:50:51;8.73;;;2.93;;
4686;SDS011;2357;47.316;-1.348;2023-12-14T13:53:17;5.57;;;2.37;;
4686;SDS011;2357;47.316;-1.348;2023-12-14T13:55:42;8.87;;;2.60;;
4686;SDS011;2357;47.316;-1.348;2023-12-14T13:58:08;6.57;;;2.70;;
4686;SDS011;2357;47.316;-1.348;2023-12-14T14:00:33;8.23;;;2.60;;
4686;SDS011;2357;47.316;-1.348;2023-12-14T14:03:00;6.10;;;2.10;;
4686;SDS011;2357;47.316;-1.348;2023-12-14T14:05:26;6.80;;;1.87;;
4686;SDS011;2357;47.316;-1.348;2023-12-14T14:07:52;7.50;;;1.90;;
4686;SDS011;2357;47.316;-1.348;2023-12-14T14:10:18;8.30;;;2.60;;
4686;SDS011;2357;47.316;-1.348;2023-12-14T14:12:45;4.77;;;1.80;;
4686;SDS011;2357;47.316;-1.348;2023-12-14T14:15:11;6.67;;;2.30;;
4686;SDS011;2357;47.316;-1.348;2023-12-14T14:17:37;8.13;;;3.00;;
4686;SDS011;2357;47.316;-1.348;2023-12-14T14:20:03;4.73;;;2.67;;
4686;SDS011;2357;47.316;-1.348;2023-12-14T14:22:30;5.23;;;2.27;;
4686;SDS011;2357;47.316;-1.348;2023-12-14T14:24:55;5.00;;;1.60;;
4686;SDS011;2357;47.316;-1.348;2023-12-14T14:27:21;7.93;;;2.10;;
4686;SDS011;2357;47.316;-1.348;2023-12-14T14:29:47;7.37;;;2.73;;
4686;SDS011;2357;47.316;-1.348;2023-12-14T14:32:14;12.03;;;2.73;;
4686;SDS011;2357;47.316;-1.348;2023-12-14T14:34:40;9.17;;;2.00;;
4686;SDS011;2357;47.316;-1.348;2023-12-14T14:37:05;6.03;;;2.23;;
4686;SDS011;2357;47.316;-1.348;2023-12-14T14:39:31;2.93;;;2.00;;
4686;SDS011;2357;47.316;-1.348;2023-12-14T14:41:57;5.13;;;1.70;;
4686;SDS011;2357;47.316;-1.348;2023-12-14T14:44:22;12.23;;;2.20;;
4686;SDS011;2357;47.316;-1.348;2023-12-14T14:46:49;4.70;;;1.83;;
4686;SDS011;2357;47.316;-1.348;2023-12-14T14:49:14;5.97;;;2.03;;
4686;SDS011;2357;47.316;-1.348;2023-12-14T14:51:40;3.20;;;1.53;;
4686;SDS011;2357;47.316;-1.348;2023-12-14T14:54:06;6.77;;;1.67;;